Flight Track Log - Related Links

Times and Time Zones

All times are in EST time to prevent confusion due to time zone crossing. See the N920CS flight status page for this flight to view local times or setup timezone preferences in your user account.

Time Position Orientation Groundspeed Altitude Reporting Facility
EST Latitude Longitude Course Direction KTS MPH feet Rate Location/Type
Sun 01:34:53 PM 30.3383 -81.5061 360° North 87 100 700  Level Jacksonville Center
Sun 01:34:59 PM 30.3383 -81.5061 357° North 88 101 700 806 Level Jacksonville Center
Sun 01:36:00 PM 30.3697 -81.5083 357° North 119 137 1,600 984 Climbing Jacksonville Center
Sun 01:37:01 PM 30.4031 -81.5100 358° North 122 140 2,700 1,131 Climbing Jacksonville Center
Sun 01:38:02 PM 30.4386 -81.5072 North 124 143 3,900 1,131 Climbing Jacksonville Center
Sun 01:39:03 PM 30.4742 -81.5092 357° North 123 142 5,000 1,140 Climbing Jacksonville Center
Sun 01:40:03 PM 30.5097 -81.5133 354° North 126 145 6,200 992 Climbing Jacksonville Center
Sun 01:41:04 PM 30.5450 -81.5128 North 129 148 7,000 390 Climbing Jacksonville Center
Sun 01:42:06 PM 30.5911 -81.5122 North 154 177 7,000  Level Jacksonville Center
Sun 01:43:06 PM 30.6369 -81.5092 North 156 180 7,000  Level Jacksonville Center
Sun 01:43:18 PM 30.6472 -81.5089 North 150 173 7,000  Level Jacksonville Center
Sun 01:44:07 PM 30.6786 -81.4989 15° North 156 180 7,000  Level Jacksonville Center
Sun 01:44:18 PM 30.6889 -81.4986 North 155 178 7,000  Level Jacksonville Center
Sun 01:45:08 PM 30.7222 -81.4933 North 156 180 7,000  Level Jacksonville Center
Sun 01:45:18 PM 30.7286 -81.4933 360° North 155 178 7,000  Level Jacksonville Center
Sun 01:46:18 PM 30.7722 -81.4831 11° North 176 203 7,000 -50 Level Jacksonville Center
Sun 01:47:18 PM 30.8161 -81.4750 North 169 194 6,900  Descending Jacksonville Center
Sun 01:48:18 PM 30.8597 -81.4672 North 159 183 7,000 50 Climbing Jacksonville Center
Sun 01:49:18 PM 30.9014 -81.4569 12° North 159 183 7,000  Level Jacksonville Center
Sun 01:50:18 PM 30.9472 -81.4489 North 159 183 7,000 -50 Level Jacksonville Center
Sun 01:51:18 PM 30.9889 -81.4411 North 159 183 6,900  Descending Jacksonville Center
Sun 01:52:18 PM 31.0286 -81.4306 13° North 159 183 7,000 50 Climbing Jacksonville Center
Sun 01:53:18 PM 31.0744 -81.4228 North 159 183 7,000  Level Jacksonville Center
Sun 01:54:18 PM 31.1181 -81.4122 12° North 159 183 7,000  Level Jacksonville Center
Sun 01:55:18 PM 31.1597 -81.4044 North 159 183 7,000  Level Jacksonville Center
Sun 01:56:18 PM 31.1994 -81.3964 10° North 159 183 7,000  Level Jacksonville Center
Sun 01:57:18 PM 31.2431 -81.3886 North 159 183 7,000  Level Jacksonville Center
Sun 01:58:18 PM 31.2889 -81.3781 11° North 159 183 7,000  Level Jacksonville Center
Sun 01:59:18 PM 31.3328 -81.3675 12° North 159 183 7,000  Level Jacksonville Center
Sun 02:00:18 PM 31.3764 -81.3619 North 159 183 7,000  Level Jacksonville Center
Sun 02:01:18 PM 31.4139 -81.3517 13° North 159 183 7,000  Level Jacksonville Center
Sun 02:02:18 PM 31.4578 -81.3436 North 159 183 7,000  Level Jacksonville Center
Sun 02:03:18 PM 31.5075 -81.3331 10° North 159 183 7,000  Level Jacksonville Center
Sun 02:04:18 PM 31.5514 -81.3225 12° North 159 183 7,000  Level Jacksonville Center
Sun 02:05:18 PM 31.5908 -81.3169 North 159 183 7,000  Level Jacksonville Center
Sun 02:06:18 PM 31.6347 -81.3089 North 159 183 7,000  Level Jacksonville Center
Sun 02:07:18 PM 31.6828 -81.3178 351° North 159 183 7,000  Level Jacksonville Center
Sun 02:08:18 PM 31.7267 -81.3269 350° North 159 183 7,000 64 Level Jacksonville Center
Sun 02:10:00 PM 31.7966 -81.3023 17° North  Level FlightAware Approximate
Sun 02:17:00 PM 32.0847 -81.2006 17° North  Level FlightAware Approximate
Sun 02:18:00 PM 32.1258 -81.1860 17° North  Level FlightAware Approximate
Sun 02:19:00 PM 32.1551 -81.2212 304° West  Level FlightAware Approximate
Sun 02:20:00 PM 32.1790 -81.2628 304° West  Level FlightAware Approximate
Sun 02:21:00 PM 32.2028 -81.3044 304° West  Level FlightAware Approximate
Sun 02:22:00 PM 32.2267 -81.3460 304° West  Level FlightAware Approximate
Sun 02:22:54 PM 32.2881 -81.6811 304° West 178 205 8,000  Level Jacksonville Center
Sun 02:23:00 PM 32.2505 -81.3877 304° West  Level FlightAware Approximate
Sun 02:23:54 PM 32.3178 -81.7250 309° West 178 205 8,000  Level Jacksonville Center
Sun 02:24:00 PM 32.2743 -81.4294 304° West  Level FlightAware Approximate
Sun 02:24:54 PM 32.3431 -81.7689 304° West 178 205 8,000  Level Jacksonville Center
Sun 02:25:00 PM 32.2982 -81.4711 304° West  Level FlightAware Approximate
Sun 02:25:54 PM 32.3728 -81.8153 307° West 173 199 8,000  Level Jacksonville Center
Sun 02:26:00 PM 32.3220 -81.5129 304° West  Level FlightAware Approximate
Sun 02:27:00 PM 32.3458 -81.5546 304° West  Level FlightAware Approximate
Sun 02:27:21 PM 32.4142 -81.8761 309° West 172 198 8,000  Level Atlanta Center
Sun 02:28:00 PM 32.3695 -81.5964 304° West  Level FlightAware Approximate
Sun 02:28:21 PM 32.4422 -81.9247 304° West 172 198 8,000  Level Atlanta Center
Sun 02:29:21 PM 32.4700 -81.9658 309° West 172 198 8,000  Level Atlanta Center
Sun 02:30:21 PM 32.4981 -82.0119 306° West 172 198 8,000  Level Atlanta Center
Sun 02:31:21 PM 32.5258 -82.0581 306° West 172 198 8,000  Level Atlanta Center
Sun 02:32:21 PM 32.5539 -82.1044 306° West 172 198 8,000  Level Atlanta Center
Sun 02:33:21 PM 32.5817 -82.1456 309° West 172 198 8,000  Level Atlanta Center
Sun 02:34:21 PM 32.6072 -82.1869 306° West 172 198 8,000  Level Atlanta Center
Sun 02:35:21 PM 32.6350 -82.2383 303° West 172 198 8,000  Level Atlanta Center
Sun 02:36:21 PM 32.6608 -82.2822 305° West 177 204 8,000  Level Atlanta Center
Sun 02:37:21 PM 32.6906 -82.3258 309° West 171 197 8,000  Level Atlanta Center
Sun 02:38:21 PM 32.7183 -82.3675 308° West 169 194 8,000  Level Atlanta Center
Sun 02:39:21 PM 32.7442 -82.4164 302° West 169 194 8,000  Level Atlanta Center
Sun 02:40:21 PM 32.7739 -82.4628 307° West 175 201 8,000  Level Atlanta Center
Sun 02:41:21 PM 32.8017 -82.5042 309° West 169 194 8,000  Level Atlanta Center
Sun 02:42:21 PM 32.8272 -82.5508 303° West 169 194 8,000  Level Atlanta Center
Sun 02:43:21 PM 32.8547 -82.5947 307° West 169 194 8,000  Level Atlanta Center
Sun 02:44:21 PM 32.8825 -82.6389 307° West 169 194 8,000  Level Atlanta Center
Sun 02:45:21 PM 32.9100 -82.6853 305° West 169 194 8,000  Level Atlanta Center
Sun 02:46:21 PM 32.9378 -82.7319 305° West 169 194 8,000  Level Atlanta Center
Sun 02:47:21 PM 32.9653 -82.7786 305° West 169 194 8,000  Level Atlanta Center
Sun 02:48:21 PM 32.9847 -82.8228 298° West 169 194 8,000  Level Atlanta Center
Sun 02:49:21 PM 33.0100 -82.8722 301° West 169 194 8,000  Level Atlanta Center
Sun 02:50:21 PM 33.0314 -82.9189 299° West 169 194 8,000 -50 Level Atlanta Center
Sun 02:51:21 PM 33.0550 -82.9706 299° West 175 201 7,900 -300 Descending Atlanta Center
Sun 02:52:21 PM 33.0803 -83.0225 300° West 180 207 7,400 -532 Descending Atlanta Center
Sun 02:53:59 PM 33.1167 -83.1000 299° West 176 203 6,500 -494 Descending Atlanta TRACON
Sun 02:54:59 PM 33.1500 -83.1500 309° West 177 204 6,100 -263 Descending Atlanta TRACON
Sun 02:55:53 PM 33.1667 -83.2000 292° West 168 193 6,000 -52 Descending Atlanta TRACON
Sun 02:56:54 PM 33.1833 -83.2500 292° West 165 190 6,000  Level Atlanta TRACON
Sun 02:57:54 PM 33.2167 -83.3000 309° West 165 190 6,000  Level Atlanta TRACON
Sun 02:58:54 PM 33.2333 -83.3500 292° West 162 186 6,000  Level Atlanta TRACON
Sun 03:00:00 PM 33.2667 -83.4000 309° West 170 196 6,000  Level Atlanta TRACON
Sun 03:00:54 PM 33.2833 -83.4500 292° West 173 199 6,000 -53 Level Atlanta TRACON
Sun 03:01:54 PM 33.3000 -83.4833 301° West 175 201 5,900 -50 Descending Atlanta TRACON
Sun 03:02:54 PM 33.3333 -83.5333 309° West 176 203 5,900  Level Atlanta TRACON
Sun 03:03:54 PM 33.3500 -83.6000 287° West 176 203 5,900 50 Level Atlanta TRACON
Sun 03:04:54 PM 33.3833 -83.6333 320° Northwest 174 200 6,000 -48 Climbing Atlanta TRACON
Sun 03:06:00 PM 33.4167 -83.6833 309° West 170 196 5,800 -333 Descending Atlanta TRACON
Sun 03:07:00 PM 33.4667 -83.7000 344° North 182 209 5,300 -550 Descending Atlanta TRACON
Sun 03:08:00 PM 33.5000 -83.7333 320° Northwest 184 212 4,700 -526 Descending Atlanta TRACON
Sun 03:08:54 PM 33.5500 -83.7667 331° Northwest 187 215 4,300 -368 Descending Atlanta TRACON
Sun 03:09:54 PM 33.6000 -83.7833 344° North 179 206 4,000 -143 Descending Atlanta TRACON
Sun 03:11:00 PM 33.6333 -83.8167 320° Northwest 162 186 4,000  Level Atlanta TRACON
Sun 03:11:54 PM 33.6667 -83.8333 337° Northwest 159 183 4,000  Level Atlanta TRACON
Sun 03:12:54 PM 33.7167 -83.8500 345° North 158 182 4,000  Level Atlanta TRACON
Sun 03:14:00 PM 33.7500 -83.8833 320° Northwest 160 184 4,000  Level Atlanta TRACON
Sun 03:15:00 PM 33.8000 -83.9000 345° North 157 181 4,000  Level Atlanta TRACON
Sun 03:16:00 PM 33.8333 -83.9333 320° Northwest 156 180 4,000  Level Atlanta TRACON
Sun 03:17:06 PM 33.8667 -83.9500 337° Northwest 141 162 4,000  Level Atlanta TRACON
Sun 03:18:00 PM 33.9000 -83.9833 320° Northwest 138 159 4,000  Level Atlanta TRACON
Sun 03:19:06 PM 33.9000 -84.0333 270° West 139 160 4,000 -100 Level Atlanta TRACON
Sun 03:20:00 PM 33.8833 -84.0667 239° Southwest 139 160 3,800 -350 Descending Atlanta TRACON
Sun 03:21:06 PM 33.8833 -84.1167 270° West 155 178 3,300 -500 Descending Atlanta TRACON
Sun 03:22:00 PM 33.8667 -84.1667 248° West 134 154 2,800 -474 Descending Atlanta TRACON
Sun 03:23:00 PM 33.8667 -84.2000 270° West 122 140 2,400 -190 Descending Atlanta TRACON
Sun 03:24:06 PM 33.8500 -84.2500 248° West 125 144 2,400 -190 Level Atlanta TRACON
Sun 03:25:06 PM 33.8500 -84.2833 270° West 105 121 2,000 -450 Descending Atlanta TRACON
Sun 03:26:06 PM 33.8500 -84.3167 270° West 103 119 1,500 -500 Descending Atlanta TRACON
Sun 03:28:00 PM 33.8756 -84.3020 25° Northeast  Level Estimated
Sun 03:35:00 PM 33.8756 -84.3020 301° West  Level Estimated

Login

Don't have an account? Register now (free) for customized features, flight alerts, and more!